Time;durP1;ratioP1;P1;durP2;ratioP2;P2;SDS_P1;SDS_P2;PMS_P1;PMS_P2;Temp;Humidity;BMP_temperature;BMP_pressure;BME280_temperature;BME280_humidity;BME280_pressure;Samples;Min_cycle;Max_cycle;Signal;HPM_P1;HPM_P2
2023/10/17 00:02:56;;;;;;;2.13;0.60;;;;;;;;;;4988218;28;20063;-87
2023/10/17 00:05:29;;;;;;;2.50;0.80;;;;;;;;;;4980959;28;20046;-88
2023/10/17 00:08:00;;;;;;;3.80;0.70;;;;;;;;;;4990398;28;20042;-87
2023/10/17 00:10:31;;;;;;;0.88;0.43;;;;;;;;;;4990145;28;20054;-90
2023/10/17 00:15:52;;;;;;;1.67;0.70;;;;;;;;;;4977768;28;20055;-86
2023/10/17 00:18:25;;;;;;;3.40;0.85;;;;;;;;;;4991644;28;20058;-85
2023/10/17 00:21:09;;;;;;;1.42;0.57;;;;;;;;;;4991118;28;20517;-86
2023/10/17 00:23:39;;;;;;;1.80;0.60;;;;;;;;;;4990515;28;20548;-87
2023/10/17 00:26:11;;;;;;;1.67;0.50;;;;;;;;;;4992359;28;20046;-84
2023/10/17 00:28:52;;;;;;;1.40;0.43;;;;;;;;;;4975067;28;20050;-87
2023/10/17 00:31:23;;;;;;;1.73;0.50;;;;;;;;;;4991180;28;20050;-89
2023/10/17 00:34:01;;;;;;;1.83;0.60;;;;;;;;;;4973998;28;20065;-86
2023/10/17 00:36:33;;;;;;;1.58;0.68;;;;;;;;;;4974148;28;20054;-87
2023/10/17 00:39:11;;;;;;;6.88;0.63;;;;;;;;;;4989734;28;20527;-86
2023/10/17 00:42:09;;;;;;;0.90;0.50;;;;;;;;;;4990041;28;20055;-86
2023/10/17 00:44:44;;;;;;;2.17;0.73;;;;;;;;;;4990031;28;20042;-85
2023/10/17 00:47:22;;;;;;;2.20;0.80;;;;;;;;;;4991965;28;20042;-87
2023/10/17 00:49:52;;;;;;;2.80;0.73;;;;;;;;;;4990940;28;20042;-86
2023/10/17 00:52:29;;;;;;;2.15;0.80;;;;;;;;;;4990733;28;20046;-87
2023/10/17 00:54:59;;;;;;;2.58;0.65;;;;;;;;;;4998071;28;20032;-87
2023/10/17 00:57:31;;;;;;;2.13;0.75;;;;;;;;;;5015263;28;20042;-87
2023/10/17 01:00:23;;;;;;;2.03;0.73;;;;;;;;;;4998778;28;20023;-85
2023/10/17 01:03:01;;;;;;;1.17;0.63;;;;;;;;;;5014504;28;20041;-86
2023/10/17 01:06:13;;;;;;;1.70;0.70;;;;;;;;;;5014778;28;20046;-85
2023/10/17 01:08:50;;;;;;;4.00;1.02;;;;;;;;;;5015078;28;20037;-86
2023/10/17 01:11:21;;;;;;;2.15;0.90;;;;;;;;;;5018175;28;20064;-85
2023/10/17 01:13:52;;;;;;;2.53;0.55;;;;;;;;;;4997354;28;20053;-86
2023/10/17 01:16:24;;;;;;;2.85;0.70;;;;;;;;;;4994302;28;20050;-86
2023/10/17 01:18:55;;;;;;;1.55;0.55;;;;;;;;;;4976896;28;20046;-86
2023/10/17 01:21:26;;;;;;;1.77;0.90;;;;;;;;;;4991668;28;20050;-87
2023/10/17 01:23:58;;;;;;;1.70;0.45;;;;;;;;;;4975926;28;20043;-85
2023/10/17 01:26:29;;;;;;;2.30;0.70;;;;;;;;;;4974035;28;20051;-88
2023/10/17 01:29:01;;;;;;;3.42;0.70;;;;;;;;;;4988438;28;20493;-89
2023/10/17 01:31:38;;;;;;;3.00;0.80;;;;;;;;;;4974184;28;20066;-87
2023/10/17 01:34:11;;;;;;;1.67;0.70;;;;;;;;;;4989110;28;20524;-86
2023/10/17 01:36:44;;;;;;;5.68;0.60;;;;;;;;;;4988787;28;20062;-86
2023/10/17 01:39:16;;;;;;;2.78;0.70;;;;;;;;;;4988864;28;20426;-86
2023/10/17 01:41:50;;;;;;;1.65;0.60;;;;;;;;;;4975084;28;20062;-85
2023/10/17 01:44:21;;;;;;;2.53;0.57;;;;;;;;;;4988972;28;20050;-86
2023/10/17 01:46:52;;;;;;;1.25;0.47;;;;;;;;;;4978101;28;20042;-86
2023/10/17 01:49:22;;;;;;;1.65;0.50;;;;;;;;;;4994306;28;20053;-85
2023/10/17 01:51:53;;;;;;;2.22;0.57;;;;;;;;;;4991987;28;20393;-87
2023/10/17 01:54:25;;;;;;;1.48;0.73;;;;;;;;;;4992785;28;20073;-87
2023/10/17 01:57:06;;;;;;;1.30;0.60;;;;;;;;;;4993544;28;20068;-85
2023/10/17 01:59:38;;;;;;;1.20;0.50;;;;;;;;;;4992523;28;20054;-86
2023/10/17 02:02:08;;;;;;;1.15;0.40;;;;;;;;;;4992473;28;20046;-86
2023/10/17 02:04:38;;;;;;;1.30;0.60;;;;;;;;;;4992163;28;20409;-85
2023/10/17 02:07:08;;;;;;;5.55;0.88;;;;;;;;;;4992223;28;20081;-89
2023/10/17 02:12:14;;;;;;;3.42;0.80;;;;;;;;;;4991915;28;20489;-84
2023/10/17 02:14:45;;;;;;;7.63;0.90;;;;;;;;;;4991958;28;20050;-82
2023/10/17 02:17:15;;;;;;;6.00;1.67;;;;;;;;;;4993811;28;20061;-81
2023/10/17 02:19:47;;;;;;;3.92;1.35;;;;;;;;;;4990438;28;20053;-79
2023/10/17 02:22:17;;;;;;;7.25;1.40;;;;;;;;;;4988731;28;20050;-80
2023/10/17 02:24:47;;;;;;;2.58;1.17;;;;;;;;;;4991147;28;20058;-79
2023/10/17 02:27:21;;;;;;;4.30;1.50;;;;;;;;;;4993430;28;20401;-78
2023/10/17 02:29:53;;;;;;;4.78;1.27;;;;;;;;;;4992756;28;20057;-79
2023/10/17 02:32:25;;;;;;;6.07;1.67;;;;;;;;;;4991990;28;20062;-80
2023/10/17 02:34:56;;;;;;;5.43;1.75;;;;;;;;;;4992974;28;20418;-80
2023/10/17 02:37:29;;;;;;;3.03;1.67;;;;;;;;;;4991285;28;20050;-80
2023/10/17 02:40:09;;;;;;;4.47;1.63;;;;;;;;;;4991203;28;20050;-80
2023/10/17 02:42:40;;;;;;;6.18;2.28;;;;;;;;;;4992807;28;20046;-79
2023/10/17 02:45:11;;;;;;;4.97;2.15;;;;;;;;;;4992644;28;20046;-81
2023/10/17 02:47:43;;;;;;;2.35;0.90;;;;;;;;;;4992256;28;20051;-81
2023/10/17 02:50:47;;;;;;;2.28;0.85;;;;;;;;;;4992859;28;20058;-80
2023/10/17 02:53:12;;;;;;;2.88;0.93;;;;;;;;;;4990869;28;20413;-81
2023/10/17 02:55:43;;;;;;;2.17;0.68;;;;;;;;;;4992328;28;20058;-81
2023/10/17 02:58:13;;;;;;;3.30;1.10;;;;;;;;;;4993528;28;20055;-81
2023/10/17 03:00:47;;;;;;;3.53;0.70;;;;;;;;;;4993284;28;20054;-79
2023/10/17 03:03:19;;;;;;;1.63;0.57;;;;;;;;;;4992603;28;20054;-81
2023/10/17 03:05:53;;;;;;;4.30;0.52;;;;;;;;;;4994489;28;20061;-82
2023/10/17 03:08:24;;;;;;;0.85;0.40;;;;;;;;;;4992794;28;20386;-81
2023/10/17 03:10:59;;;;;;;1.75;0.40;;;;;;;;;;4994716;28;20492;-80
2023/10/17 03:13:43;;;;;;;1.98;0.50;;;;;;;;;;4994726;28;20043;-80
2023/10/17 03:16:23;;;;;;;1.73;0.30;;;;;;;;;;4994462;28;20381;-81
2023/10/17 03:18:58;;;;;;;0.98;0.45;;;;;;;;;;4992632;28;20062;-79
2023/10/17 03:21:39;;;;;;;0.57;0.32;;;;;;;;;;4994622;28;20050;-81
2023/10/17 03:24:09;;;;;;;1.05;0.28;;;;;;;;;;4994376;28;20054;-81
2023/10/17 03:26:40;;;;;;;0.47;0.22;;;;;;;;;;4994676;28;20042;-81
2023/10/17 03:29:19;;;;;;;1.13;0.43;;;;;;;;;;4994703;28;20046;-81
2023/10/17 03:31:59;;;;;;;1.48;0.40;;;;;;;;;;4976005;28;20054;-81
2023/10/17 03:34:37;;;;;;;1.70;0.60;;;;;;;;;;4993974;28;20405;-81
2023/10/17 03:39:57;;;;;;;0.80;0.30;;;;;;;;;;4993905;28;20042;-80
2023/10/17 03:45:17;;;;;;;2.10;0.38;;;;;;;;;;4993906;28;20061;-81
2023/10/17 08:15:19;;;;;;;4.13;0.90;;;;;;;;;;6167828;22;2560463;-77
2023/10/17 08:17:49;;;;;;;4.47;1.10;;;;;;;;;;6326218;22;20328;-78
2023/10/17 08:23:08;;;;;;;2.38;0.95;;;;;;;;;;6312525;22;20012;-79
2023/10/17 08:25:54;;;;;;;4.93;1.10;;;;;;;;;;6279453;22;20031;-77
2023/10/17 08:28:34;;;;;;;1.65;0.63;;;;;;;;;;6306433;22;20011;-77
2023/10/17 09:18:40;;;;;;;6.15;1.30;;;;;;;;;;6217873;22;20028;-80
2023/10/17 09:21:13;;;;;;;5.57;1.80;;;;;;;;;;6195310;23;20473;-79
2023/10/17 09:23:43;;;;;;;3.97;1.58;;;;;;;;;;6196468;23;20020;-81
2023/10/17 09:26:23;;;;;;;5.07;1.45;;;;;;;;;;6186396;23;20021;-80
2023/10/17 09:29:51;;;;;;;3.10;1.05;;;;;;;;;;6195831;23;20020;-79
2023/10/17 09:32:37;;;;;;;1.95;0.98;;;;;;;;;;6185675;23;20347;-79
2023/10/17 09:35:19;;;;;;;4.00;1.02;;;;;;;;;;6196320;23;20020;-79
2023/10/17 09:58:22;;;;;;;5.97;1.30;;;;;;;;;;6226020;23;20347;-83
2023/10/17 10:00:53;;;;;;;;;;;;;;;;;;6226916;23;20031;-80
2023/10/17 10:03:28;;;;;;;4.18;1.30;;;;;;;;;;6214703;23;19923;-81
2023/10/17 10:06:22;;;;;;;3.47;0.90;;;;;;;;;;6227235;23;20017;-80
2023/10/17 10:09:15;;;;;;;3.00;1.38;;;;;;;;;;6216612;23;20447;-80
2023/10/17 10:11:50;;;;;;;4.72;1.33;;;;;;;;;;6204779;23;20017;-79
2023/10/17 10:22:56;;;;;;;3.42;1.30;;;;;;;;;;6226713;23;20008;-78
2023/10/17 10:26:12;;;;;;;4.60;1.58;;;;;;;;;;6179545;23;20028;-79
2023/10/17 10:28:42;;;;;;;4.10;2.28;;;;;;;;;;6226438;23;20013;-78
2023/10/17 10:31:21;;;;;;;2.92;1.40;;;;;;;;;;6215599;23;20466;-78
2023/10/17 10:33:56;;;;;;;4.43;1.73;;;;;;;;;;6226949;23;20009;-78
2023/10/17 10:45:02;;;;;;;5.28;2.40;;;;;;;;;;6214729;23;20008;-81
2023/10/17 10:48:14;;;;;;;5.00;2.58;;;;;;;;;;6212901;23;20016;-80
2023/10/17 10:52:18;;;;;;;5.97;2.55;;;;;;;;;;6216688;23;20032;-80
2023/10/17 10:55:37;;;;;;;4.88;1.88;;;;;;;;;;6226130;23;20016;-79
2023/10/17 10:58:47;;;;;;;2.95;1.13;;;;;;;;;;6215644;23;20024;-80
2023/10/17 11:01:21;;;;;;;2.42;1.27;;;;;;;;;;6216859;23;20017;-80
2023/10/17 11:04:15;;;;;;;5.47;1.65;;;;;;;;;;6227212;23;20013;-81
2023/10/17 11:06:47;;;;;;;3.80;1.50;;;;;;;;;;6217683;23;20015;-78
2023/10/17 11:09:45;;;;;;;4.05;1.70;;;;;;;;;;6225043;23;20017;-78
2023/10/17 11:12:25;;;;;;;5.55;1.92;;;;;;;;;;6196097;23;20024;-80
2023/10/17 11:15:22;;;;;;;3.50;0.82;;;;;;;;;;6214390;23;20016;-80
2023/10/17 11:18:06;;;;;;;1.70;0.63;;;;;;;;;;6216233;23;20009;-79
2023/10/17 11:20:40;;;;;;;;;;;;;;;;;;6226213;23;20020;-77
2023/10/17 11:23:13;;;;;;;4.35;1.60;;;;;;;;;;6222722;23;19923;-77
2023/10/17 11:25:47;;;;;;;3.20;1.20;;;;;;;;;;6224585;23;20016;-78
2023/10/17 11:28:17;;;;;;;18.58;7.05;;;;;;;;;;6224724;23;20012;-76
2023/10/17 11:30:50;;;;;;;11.00;3.58;;;;;;;;;;6214352;23;20474;-78
2023/10/17 11:33:47;;;;;;;6.75;2.63;;;;;;;;;;6223867;23;20469;-78
2023/10/17 11:36:20;;;;;;;2.40;1.13;;;;;;;;;;6214111;23;20031;-79
2023/10/17 11:39:26;;;;;;;2.65;1.42;;;;;;;;;;6223802;23;20323;-79
2023/10/17 11:41:57;;;;;;;2.28;1.17;;;;;;;;;;6224413;23;20008;-81
2023/10/17 11:44:31;;;;;;;2.45;1.20;;;;;;;;;;6221080;23;20756;-81
2023/10/17 11:47:23;;;;;;;2.28;1.10;;;;;;;;;;6221438;23;20009;-80
2023/10/17 11:49:54;;;;;;;3.88;1.40;;;;;;;;;;6224222;23;20347;-80
2023/10/17 11:52:26;;;;;;;2.58;1.35;;;;;;;;;;6222934;23;20013;-78
2023/10/17 11:55:00;;;;;;;3.00;1.35;;;;;;;;;;6212389;23;20451;-79
2023/10/17 11:57:31;;;;;;;2.70;1.58;;;;;;;;;;6224136;23;20019;-79
2023/10/17 12:02:58;;;;;;;4.40;1.85;;;;;;;;;;6200491;23;20343;-79
2023/10/17 12:05:31;;;;;;;2.90;1.42;;;;;;;;;;6217034;23;20032;-78
2023/10/17 12:08:01;;;;;;;2.83;1.33;;;;;;;;;;6234332;23;20013;-82
2023/10/17 12:10:36;;;;;;;2.35;1.30;;;;;;;;;;6224265;23;20016;-78
2023/10/17 12:13:07;;;;;;;3.22;1.65;;;;;;;;;;6228097;23;20032;-78
2023/10/17 12:15:38;;;;;;;4.05;1.65;;;;;;;;;;6214458;23;20021;-78
2023/10/17 12:18:08;;;;;;;7.20;1.77;;;;;;;;;;6216368;23;20435;-78
2023/10/17 12:20:42;;;;;;;3.97;2.00;;;;;;;;;;6215983;23;20032;-78
2023/10/17 12:23:13;;;;;;;3.28;1.60;;;;;;;;;;6225061;23;20024;-78
2023/10/17 12:25:45;;;;;;;4.30;1.42;;;;;;;;;;6226183;23;20009;-78
2023/10/17 12:28:16;;;;;;;5.30;1.60;;;;;;;;;;6214550;23;20012;-78
2023/10/17 12:30:46;;;;;;;4.97;2.00;;;;;;;;;;6224060;23;20012;-78
2023/10/17 12:33:22;;;;;;;5.57;1.83;;;;;;;;;;6214297;23;20016;-78
2023/10/17 12:35:52;;;;;;;3.75;1.40;;;;;;;;;;6226130;23;20443;-78
2023/10/17 12:38:25;;;;;;;3.28;1.55;;;;;;;;;;6215535;23;20017;-78
2023/10/17 12:40:56;;;;;;;2.72;1.55;;;;;;;;;;6224548;23;20009;-78
2023/10/17 12:43:27;;;;;;;3.38;1.65;;;;;;;;;;6214424;23;20017;-77
2023/10/17 12:45:58;;;;;;;3.50;1.80;;;;;;;;;;6225865;23;20016;-78
2023/10/17 12:48:28;;;;;;;4.70;1.85;;;;;;;;;;6215040;23;20017;-78
2023/10/17 12:50:58;;;;;;;4.80;2.10;;;;;;;;;;6213215;23;20023;-77
2023/10/17 12:53:29;;;;;;;5.32;1.88;;;;;;;;;;6215922;23;20028;-78
2023/10/17 12:55:59;;;;;;;4.28;2.03;;;;;;;;;;6215803;23;20017;-77
2023/10/17 12:58:29;;;;;;;6.07;1.80;;;;;;;;;;6215272;23;20378;-77
2023/10/17 13:01:00;;;;;;;7.43;2.20;;;;;;;;;;6225557;23;20008;-77
2023/10/17 13:03:36;;;;;;;3.63;1.90;;;;;;;;;;6215361;23;20013;-77
2023/10/17 13:06:10;;;;;;;4.22;2.05;;;;;;;;;;6223868;23;20339;-77
2023/10/17 13:08:41;;;;;;;8.75;3.63;;;;;;;;;;6224987;23;20017;-77
2023/10/17 13:11:11;;;;;;;5.55;2.70;;;;;;;;;;6215003;23;20016;-77
2023/10/17 13:13:40;;;;;;;5.13;2.63;;;;;;;;;;6215670;23;20016;-78
2023/10/17 13:16:11;;;;;;;3.88;1.90;;;;;;;;;;6214945;23;20028;-77
2023/10/17 13:18:41;;;;;;;4.22;1.92;;;;;;;;;;6214691;23;20351;-77
2023/10/17 13:21:15;;;;;;;4.80;1.80;;;;;;;;;;6224731;23;20017;-77
2023/10/17 13:23:45;;;;;;;6.30;2.83;;;;;;;;;;6224860;23;20008;-77
2023/10/17 13:26:19;;;;;;;4.75;2.17;;;;;;;;;;6214433;23;20012;-77
2023/10/17 13:28:49;;;;;;;5.60;2.30;;;;;;;;;;6211947;23;20056;-78
2023/10/17 13:31:20;;;;;;;4.53;2.42;;;;;;;;;;6214260;23;20462;-78
2023/10/17 13:33:50;;;;;;;3.90;1.75;;;;;;;;;;6224596;23;20032;-78
2023/10/17 13:36:21;;;;;;;4.50;1.95;;;;;;;;;;6214716;23;20017;-77
2023/10/17 13:38:52;;;;;;;4.15;2.22;;;;;;;;;;6224565;23;20044;-77
2023/10/17 13:44:46;;;;;;;4.95;2.17;;;;;;;;;;6225066;23;20021;-77
2023/10/17 13:47:16;;;;;;;6.20;2.28;;;;;;;;;;6214687;23;20012;-77
2023/10/17 13:49:47;;;;;;;7.53;2.35;;;;;;;;;;6224830;23;20016;-78
2023/10/17 13:52:18;;;;;;;5.53;2.40;;;;;;;;;;6214289;23;20021;-78
2023/10/17 13:54:48;;;;;;;4.15;2.38;;;;;;;;;;6214590;23;20458;-78
2023/10/17 13:57:18;;;;;;;4.70;2.22;;;;;;;;;;6214723;23;20020;-78
2023/10/17 13:59:48;;;;;;;5.07;2.30;;;;;;;;;;6210933;23;20466;-78
2023/10/17 14:02:18;;;;;;;5.85;2.53;;;;;;;;;;6213787;23;20013;-77
2023/10/17 14:04:48;;;;;;;4.65;1.83;;;;;;;;;;6214251;23;20027;-78
2023/10/17 14:07:18;;;;;;;5.22;2.05;;;;;;;;;;6214342;23;20339;-78
2023/10/17 14:09:50;;;;;;;3.80;1.80;;;;;;;;;;6213778;23;20009;-76
2023/10/17 14:12:21;;;;;;;4.18;2.10;;;;;;;;;;6211306;23;20343;-78
2023/10/17 14:14:51;;;;;;;5.93;2.63;;;;;;;;;;6213531;23;20028;-77
2023/10/17 14:17:22;;;;;;;4.75;2.00;;;;;;;;;;6223664;23;20016;-77
2023/10/17 14:20:05;;;;;;;3.30;1.80;;;;;;;;;;6214606;23;20020;-78
2023/10/17 14:22:44;;;;;;;4.70;2.00;;;;;;;;;;6224740;23;20016;-77
2023/10/17 14:26:00;;;;;;;3.97;2.17;;;;;;;;;;6224763;23;20023;-78
2023/10/17 14:28:05;;;;;;;5.07;2.10;;;;;;;;;;6215492;23;20023;-77
2023/10/17 14:30:39;;;;;;;4.28;2.10;;;;;;;;;;6215231;23;20020;-77
2023/10/17 14:33:10;;;;;;;3.80;1.70;;;;;;;;;;6224155;22;20451;-77
2023/10/17 14:35:43;;;;;;;2.92;1.38;;;;;;;;;;6215243;23;20017;-79
2023/10/17 14:38:13;;;;;;;4.30;2.17;;;;;;;;;;6224637;23;20009;-79
2023/10/17 14:40:45;;;;;;;3.08;1.40;;;;;;;;;;6214700;23;20013;-78
2023/10/17 14:43:16;;;;;;;2.75;1.30;;;;;;;;;;6224018;23;20009;-78
2023/10/17 14:45:46;;;;;;;4.40;1.55;;;;;;;;;;6213329;23;20017;-78
2023/10/17 14:48:17;;;;;;;3.95;1.90;;;;;;;;;;6211884;23;20028;-77
2023/10/17 14:50:47;;;;;;;3.78;1.85;;;;;;;;;;6214482;23;20028;-79
2023/10/17 14:53:19;;;;;;;4.70;2.00;;;;;;;;;;6214263;23;20024;-79
2023/10/17 14:56:04;;;;;;;3.60;1.42;;;;;;;;;;6224731;23;20012;-78
2023/10/17 14:58:35;;;;;;;3.53;1.60;;;;;;;;;;6223355;23;20023;-78
2023/10/17 15:01:05;;;;;;;4.40;2.20;;;;;;;;;;6225336;23;20023;-78
2023/10/17 15:03:36;;;;;;;4.90;1.95;;;;;;;;;;6214695;23;20016;-78
2023/10/17 15:06:09;;;;;;;4.22;1.75;;;;;;;;;;6211397;23;20112;-78
2023/10/17 15:08:39;;;;;;;;;;;;;;;;;;6224507;23;20450;-78
2023/10/17 15:11:12;;;;;;;6.07;1.95;;;;;;;;;;6214803;23;19916;-78
2023/10/17 15:13:42;;;;;;;4.53;1.95;;;;;;;;;;6224199;23;20020;-78
2023/10/17 15:16:19;;;;;;;6.60;2.00;;;;;;;;;;6214337;23;20343;-78
2023/10/17 15:18:51;;;;;;;4.43;1.90;;;;;;;;;;6224755;23;20091;-78
2023/10/17 15:21:22;;;;;;;4.60;1.80;;;;;;;;;;6212167;23;20013;-79
2023/10/17 15:23:52;;;;;;;5.95;2.10;;;;;;;;;;6214812;23;20013;-79
2023/10/17 15:26:25;;;;;;;3.97;1.90;;;;;;;;;;6214533;23;20455;-79
2023/10/17 15:28:56;;;;;;;5.32;2.70;;;;;;;;;;6225164;23;20019;-78
2023/10/17 15:31:28;;;;;;;4.80;2.03;;;;;;;;;;6225944;23;20392;-79
2023/10/17 15:33:59;;;;;;;3.95;1.90;;;;;;;;;;6222670;23;20039;-82
2023/10/17 15:36:29;;;;;;;4.25;2.38;;;;;;;;;;6225401;23;20019;-79
2023/10/17 15:39:00;;;;;;;4.18;1.92;;;;;;;;;;6214747;23;20020;-79
2023/10/17 15:41:30;;;;;;;4.45;2.22;;;;;;;;;;6224736;23;20022;-80
2023/10/17 15:44:00;;;;;;;5.70;2.63;;;;;;;;;;6213187;23;20039;-78
2023/10/17 15:46:31;;;;;;;4.28;2.38;;;;;;;;;;6214200;23;20021;-80
2023/10/17 15:49:02;;;;;;;4.28;2.50;;;;;;;;;;6213182;23;20021;-80
2023/10/17 15:51:34;;;;;;;;;;;;;;;;;;6213542;23;20024;-80
2023/10/17 15:54:25;;;;;;;5.13;2.30;;;;;;;;;;6213364;23;20238;-82
2023/10/17 16:02:51;;;;;;;4.00;1.85;;;;;;;;;;6223591;23;20451;-80
2023/10/17 16:06:05;;;;;;;4.90;2.30;;;;;;;;;;6152110;23;20025;-81
2023/10/17 16:08:56;;;;;;;5.78;2.10;;;;;;;;;;6161796;23;20026;-80
2023/10/17 16:11:27;;;;;;;5.18;2.15;;;;;;;;;;6151918;23;20025;-79
2023/10/17 16:13:58;;;;;;;5.85;2.40;;;;;;;;;;6127072;23;20021;-79
2023/10/17 16:16:29;;;;;;;5.20;2.13;;;;;;;;;;6162302;23;20013;-80
2023/10/17 16:19:00;;;;;;;6.38;2.33;;;;;;;;;;6162482;23;20117;-79
2023/10/17 16:21:31;;;;;;;4.18;2.30;;;;;;;;;;6151435;23;20017;-79
2023/10/17 16:24:02;;;;;;;4.32;2.05;;;;;;;;;;6127709;23;20013;-79
2023/10/17 16:33:53;;;;;;;4.32;2.30;;;;;;;;;;6228936;22;20034;-78
2023/10/17 16:36:24;;;;;;;4.70;2.20;;;;;;;;;;6248436;22;20450;-78
2023/10/17 16:43:24;;;;;;;4.72;2.22;;;;;;;;;;6285426;22;20015;-78
2023/10/17 16:46:02;;;;;;;5.18;2.10;;;;;;;;;;6285707;22;20007;-78
2023/10/17 16:48:33;;;;;;;5.28;2.10;;;;;;;;;;6285259;22;20012;-78
2023/10/17 16:51:04;;;;;;;5.80;2.42;;;;;;;;;;6275304;22;20027;-78
2023/10/17 16:53:35;;;;;;;5.38;1.95;;;;;;;;;;6285470;22;20450;-78
2023/10/17 16:56:06;;;;;;;6.03;2.60;;;;;;;;;;6286095;22;20015;-79
2023/10/17 16:58:38;;;;;;;5.30;2.28;;;;;;;;;;6250758;22;20022;-79
2023/10/17 17:01:09;;;;;;;4.50;2.15;;;;;;;;;;6224965;22;20016;-79
2023/10/17 17:04:38;;;;;;;4.57;2.40;;;;;;;;;;6287135;22;20008;-79
2023/10/17 17:07:09;;;;;;;5.70;2.55;;;;;;;;;;6286285;22;20007;-80
2023/10/17 17:09:40;;;;;;;6.55;2.28;;;;;;;;;;6249725;22;20445;-80
2023/10/17 17:12:11;;;;;;;4.38;2.20;;;;;;;;;;6277448;22;20016;-79
2023/10/17 17:14:43;;;;;;;6.50;2.85;;;;;;;;;;6260765;22;20019;-80
2023/10/17 17:17:13;;;;;;;5.60;2.20;;;;;;;;;;6287079;22;20022;-80
2023/10/17 17:19:47;;;;;;;5.15;2.10;;;;;;;;;;6277270;22;20020;-80
2023/10/17 17:25:30;;;;;;;3.45;1.75;;;;;;;;;;6244433;22;20015;-84
2023/10/17 17:28:13;;;;;;;5.13;2.13;;;;;;;;;;6212907;23;20027;-83
2023/10/17 17:35:08;;;;;;;4.60;2.33;;;;;;;;;;6231849;23;20056;-78
2023/10/17 17:37:39;;;;;;;5.03;2.60;;;;;;;;;;6229819;23;20012;-77
2023/10/17 17:40:11;;;;;;;6.40;2.70;;;;;;;;;;6223917;23;20017;-76
2023/10/17 17:42:41;;;;;;;6.28;2.60;;;;;;;;;;6235406;22;20000;-77
2023/10/17 17:45:13;;;;;;;8.63;2.33;;;;;;;;;;6241889;22;20085;-77
2023/10/17 17:47:45;;;;;;;;;;;;;;;;;;6235787;22;20099;-77
2023/10/17 17:50:59;;;;;;;6.63;2.60;;;;;;;;;;6181959;23;19916;-77
2023/10/17 17:53:30;;;;;;;5.38;2.40;;;;;;;;;;6214221;23;20028;-77
2023/10/17 17:56:01;;;;;;;4.90;2.42;;;;;;;;;;6224106;23;20024;-79
2023/10/17 17:58:34;;;;;;;5.00;2.28;;;;;;;;;;6196547;23;20034;-77
2023/10/17 18:01:08;;;;;;;4.85;2.40;;;;;;;;;;6260896;23;20018;-77
2023/10/17 18:03:39;;;;;;;5.20;2.28;;;;;;;;;;6259824;23;20350;-76
2023/10/17 18:06:11;;;;;;;5.97;2.67;;;;;;;;;;6256517;23;20012;-77
2023/10/17 18:08:42;;;;;;;7.53;4.00;;;;;;;;;;6244102;23;20035;-79
2023/10/17 18:11:12;;;;;;;5.20;2.65;;;;;;;;;;6245494;23;20019;-77
2023/10/17 18:14:23;;;;;;;3.95;1.95;;;;;;;;;;6245439;23;20012;-78
2023/10/17 18:17:24;;;;;;;4.85;2.28;;;;;;;;;;6254426;23;20015;-79
2023/10/17 18:23:57;;;;;;;4.45;2.47;;;;;;;;;;6255148;23;20338;-80
2023/10/17 18:27:14;;;;;;;3.38;1.85;;;;;;;;;;6161160;22;20041;-80
2023/10/17 18:30:29;;;;;;;3.50;1.75;;;;;;;;;;6243808;23;20347;-78
2023/10/17 18:33:23;;;;;;;3.53;1.55;;;;;;;;;;6255635;22;20011;-79
2023/10/17 18:39:53;;;;;;;3.63;1.92;;;;;;;;;;6247703;22;20020;-78
2023/10/17 18:42:23;;;;;;;2.13;0.80;;;;;;;;;;6276281;22;20008;-77
2023/10/17 18:45:22;;;;;;;3.17;0.70;;;;;;;;;;6276036;22;20030;-78
2023/10/17 18:52:08;;;;;;;2.20;0.88;;;;;;;;;;6180718;22;20019;-77
2023/10/17 18:54:59;;;;;;;2.83;1.25;;;;;;;;;;6159392;22;20466;-79
2023/10/17 18:58:20;;;;;;;4.07;0.80;;;;;;;;;;6248007;22;20345;-78
2023/10/17 19:00:51;;;;;;;2.35;0.80;;;;;;;;;;6275727;22;20008;-77
2023/10/17 19:03:39;;;;;;;2.08;1.02;;;;;;;;;;6285985;22;20093;-78
2023/10/17 19:06:12;;;;;;;2.35;0.93;;;;;;;;;;6285896;22;20019;-78
2023/10/17 19:08:43;;;;;;;1.83;0.50;;;;;;;;;;6286032;22;20014;-77
2023/10/17 19:11:13;;;;;;;2.03;0.73;;;;;;;;;;6276062;22;20016;-78
2023/10/17 19:13:43;;;;;;;1.55;0.68;;;;;;;;;;6275840;22;20022;-79
2023/10/17 19:16:15;;;;;;;2.08;0.77;;;;;;;;;;6275699;22;20019;-78
2023/10/17 19:18:47;;;;;;;2.00;0.90;;;;;;;;;;6285608;22;20008;-77
2023/10/17 19:21:17;;;;;;;1.05;0.50;;;;;;;;;;6259989;22;20011;-78
2023/10/17 19:23:50;;;;;;;2.13;0.70;;;;;;;;;;6276315;22;20015;-79
2023/10/17 19:26:22;;;;;;;1.30;0.63;;;;;;;;;;6286095;22;20008;-78
2023/10/17 19:28:52;;;;;;;1.00;0.52;;;;;;;;;;6259485;22;20063;-78
2023/10/17 19:31:22;;;;;;;1.63;0.70;;;;;;;;;;6275441;22;20063;-79
2023/10/17 19:33:56;;;;;;;1.52;0.88;;;;;;;;;;6283055;22;20012;-79
2023/10/17 19:36:26;;;;;;;2.78;1.67;;;;;;;;;;6285906;22;20012;-79
2023/10/17 19:38:57;;;;;;;1.17;0.60;;;;;;;;;;6275599;22;20011;-79
2023/10/17 19:41:27;;;;;;;1.13;0.70;;;;;;;;;;6223797;22;20350;-79
2023/10/17 19:43:58;;;;;;;1.10;0.60;;;;;;;;;;6275802;22;20016;-79
2023/10/17 19:46:31;;;;;;;1.20;0.50;;;;;;;;;;6286328;22;20016;-79
2023/10/17 19:49:03;;;;;;;0.95;0.60;;;;;;;;;;6285567;22;20015;-79
2023/10/17 19:51:33;;;;;;;0.98;0.50;;;;;;;;;;6275999;22;20324;-79
2023/10/17 19:54:05;;;;;;;1.50;0.60;;;;;;;;;;6285546;22;20038;-80
2023/10/17 19:56:36;;;;;;;1.13;0.55;;;;;;;;;;6259823;22;20008;-81
2023/10/17 20:32:27;;;;;;;2.60;0.65;;;;;;;;;;6220544;23;20017;-76
2023/10/17 20:34:59;;;;;;;2.03;1.10;;;;;;;;;;6226197;23;20017;-76
2023/10/17 20:37:29;;;;;;;3.00;1.30;;;;;;;;;;6216128;23;20027;-76
2023/10/17 20:39:59;;;;;;;2.03;0.57;;;;;;;;;;6215853;23;20028;-78
2023/10/17 20:42:29;;;;;;;1.17;0.60;;;;;;;;;;6216393;23;20335;-78
2023/10/17 20:45:02;;;;;;;1.92;0.95;;;;;;;;;;6225385;23;20011;-78
2023/10/17 20:51:52;;;;;;;1.40;0.63;;;;;;;;;;6225690;23;20016;-78
2023/10/17 20:54:24;;;;;;;2.35;1.60;;;;;;;;;;6225835;23;20012;-80
2023/10/17 20:56:54;;;;;;;1.90;0.90;;;;;;;;;;6226436;23;20008;-79
2023/10/17 20:59:26;;;;;;;3.30;1.10;;;;;;;;;;6216439;23;20016;-78
2023/10/17 21:01:57;;;;;;;1.48;0.88;;;;;;;;;;6226025;23;20005;-78
2023/10/17 21:04:27;;;;;;;2.53;0.90;;;;;;;;;;6216265;23;20020;-78
2023/10/17 21:06:59;;;;;;;1.50;0.95;;;;;;;;;;6216077;23;20020;-78
2023/10/17 21:09:30;;;;;;;3.78;1.00;;;;;;;;;;6226529;23;20008;-77
2023/10/17 21:12:00;;;;;;;2.33;0.98;;;;;;;;;;6225686;23;20009;-78
2023/10/17 21:14:30;;;;;;;4.38;1.98;;;;;;;;;;6215346;23;20012;-78
2023/10/17 21:17:01;;;;;;;4.88;2.30;;;;;;;;;;6189118;23;20016;-78
2023/10/17 21:19:31;;;;;;;2.95;1.30;;;;;;;;;;6187714;23;20462;-78
2023/10/17 21:22:01;;;;;;;7.40;1.30;;;;;;;;;;6215660;23;20009;-78
2023/10/17 21:24:31;;;;;;;2.05;1.27;;;;;;;;;;6214965;23;20020;-77
2023/10/17 21:27:02;;;;;;;2.97;1.13;;;;;;;;;;6213699;23;20339;-77
2023/10/17 21:29:34;;;;;;;3.03;1.10;;;;;;;;;;6225643;23;20012;-78
2023/10/17 21:32:04;;;;;;;4.47;1.30;;;;;;;;;;6214755;23;20012;-78
2023/10/17 21:34:34;;;;;;;4.75;1.90;;;;;;;;;;6216151;23;20019;-77
2023/10/17 21:37:04;;;;;;;3.13;1.35;;;;;;;;;;6189386;23;20012;-77
2023/10/17 21:40:12;;;;;;;3.10;1.42;;;;;;;;;;6225524;23;20032;-78
2023/10/17 21:42:42;;;;;;;4.97;2.22;;;;;;;;;;6225452;23;20012;-78
2023/10/17 21:45:15;;;;;;;3.78;1.73;;;;;;;;;;6225011;23;20327;-78
2023/10/17 21:47:45;;;;;;;3.80;1.83;;;;;;;;;;6215802;23;20403;-78
2023/10/17 21:50:16;;;;;;;5.47;1.80;;;;;;;;;;6214340;23;20060;-78
2023/10/17 21:52:48;;;;;;;7.82;2.30;;;;;;;;;;6215659;23;20009;-79
2023/10/17 21:55:19;;;;;;;5.38;1.48;;;;;;;;;;6225514;23;20462;-79
2023/10/17 21:57:49;;;;;;;3.38;1.40;;;;;;;;;;6215486;23;20013;-79
2023/10/17 22:00:28;;;;;;;4.20;1.73;;;;;;;;;;6225329;23;20016;-79
2023/10/17 22:02:59;;;;;;;2.65;1.30;;;;;;;;;;6224497;23;20013;-79
2023/10/17 22:05:36;;;;;;;2.83;1.10;;;;;;;;;;6224905;23;20004;-79
2023/10/17 22:08:08;;;;;;;3.25;1.52;;;;;;;;;;6225350;23;20008;-79
2023/10/17 22:10:41;;;;;;;4.95;1.52;;;;;;;;;;6213615;23;20035;-78
2023/10/17 22:13:14;;;;;;;4.10;1.55;;;;;;;;;;6213646;23;20013;-78
2023/10/17 22:15:44;;;;;;;4.07;1.63;;;;;;;;;;6224459;23;20012;-77
2023/10/17 22:18:15;;;;;;;3.85;1.90;;;;;;;;;;6224885;23;20012;-78
2023/10/17 22:20:46;;;;;;;3.85;2.10;;;;;;;;;;6215158;23;20015;-80
2023/10/17 22:23:16;;;;;;;4.30;1.30;;;;;;;;;;6225254;23;20027;-78
2023/10/17 22:25:47;;;;;;;4.25;1.50;;;;;;;;;;6215072;23;20020;-78
2023/10/17 22:28:17;;;;;;;3.47;1.58;;;;;;;;;;6214740;23;20016;-78
2023/10/17 22:30:47;;;;;;;3.53;1.83;;;;;;;;;;6215991;23;20009;-78
2023/10/17 22:33:17;;;;;;;4.80;1.60;;;;;;;;;;6214991;23;20446;-78
2023/10/17 22:35:47;;;;;;;6.88;1.58;;;;;;;;;;6213153;23;20021;-78
2023/10/17 22:38:19;;;;;;;2.92;1.52;;;;;;;;;;6188379;23;20013;-79
2023/10/17 22:40:49;;;;;;;3.78;1.20;;;;;;;;;;6224846;23;20004;-78
2023/10/17 22:43:20;;;;;;;3.60;1.50;;;;;;;;;;6214563;23;20011;-79
2023/10/17 22:45:50;;;;;;;5.50;1.15;;;;;;;;;;6215140;23;20024;-77
2023/10/17 22:48:22;;;;;;;2.13;1.05;;;;;;;;;;6225574;23;20009;-77
2023/10/17 22:50:53;;;;;;;2.33;1.27;;;;;;;;;;6225851;23;20016;-77
2023/10/17 22:53:23;;;;;;;3.13;1.27;;;;;;;;;;6215657;23;20009;-77
2023/10/17 22:55:53;;;;;;;5.20;1.67;;;;;;;;;;6190151;23;20040;-77
2023/10/17 22:58:23;;;;;;;3.75;1.25;;;;;;;;;;6215817;23;20460;-78
2023/10/17 23:00:54;;;;;;;2.90;1.17;;;;;;;;;;6215674;23;20023;-77
2023/10/17 23:03:25;;;;;;;4.10;1.30;;;;;;;;;;6226634;23;20056;-77